Time;durP1;ratioP1;P1;durP2;ratioP2;P2;SDS_P1;SDS_P2;PMS_P1;PMS_P2;Temp;Humidity;BMP_temperature;BMP_pressure;BME280_temperature;BME280_humidity;BME280_pressure;Samples;Min_cycle;Max_cycle;Signal;HPM_P1;HPM_P2
2022/05/30 00:01:47;;;;;;;4.20;2.30;;;;;;;8.89;63.61;99964.97;5031069;28;20079;-57
2022/05/30 00:04:13;;;;;;;8.25;2.60;;;;;;;8.88;64.06;99972.16;5031121;28;20069;-57
2022/05/30 00:06:39;;;;;;;13.10;2.63;;;;;;;8.84;64.08;99968.00;5032617;28;20087;-57
2022/05/30 00:09:04;;;;;;;5.75;2.80;;;;;;;8.77;64.29;99950.69;5032732;28;20040;-59
2022/05/30 00:11:30;;;;;;;7.15;2.53;;;;;;;8.81;64.18;99959.34;5032133;28;20384;-59
2022/05/30 00:13:56;;;;;;;7.15;2.22;;;;;;;8.74;64.53;99949.13;5032003;28;20508;-59
2022/05/30 00:16:23;;;;;;;3.95;2.70;;;;;;;8.79;64.74;99958.59;5032109;28;20025;-60
2022/05/30 00:18:49;;;;;;;4.35;2.65;;;;;;;8.77;64.61;99964.03;5032794;28;20061;-58
2022/05/30 00:21:20;;;;;;;7.93;2.75;;;;;;;8.79;64.96;99971.97;5031993;28;20511;-60
2022/05/30 00:23:45;;;;;;;7.65;2.47;;;;;;;8.70;64.61;99969.00;5031864;28;20042;-59
2022/05/30 00:26:11;;;;;;;5.43;2.72;;;;;;;8.61;65.04;99965.16;5032041;28;20029;-59
2022/05/30 00:28:37;;;;;;;6.45;2.42;;;;;;;8.66;64.90;99979.97;5032546;28;20075;-57
2022/05/30 00:31:03;;;;;;;4.10;2.42;;;;;;;8.69;65.55;99990.44;5032085;28;20025;-61
2022/05/30 00:33:29;;;;;;;8.73;3.25;;;;;;;8.65;65.55;99981.78;5031961;28;20060;-61
2022/05/30 00:35:54;;;;;;;7.28;2.85;;;;;;;8.62;65.66;99990.00;5031009;28;20420;-59
2022/05/30 00:38:20;;;;;;;5.47;2.85;;;;;;;8.61;66.05;99986.50;5031725;28;20032;-56
2022/05/30 00:40:45;;;;;;;6.93;3.35;;;;;;;8.56;66.30;99979.75;5031805;28;20037;-61
2022/05/30 00:43:18;;;;;;;7.55;3.55;;;;;;;8.66;66.39;99994.16;5031271;28;20465;-57
2022/05/30 00:45:44;;;;;;;6.05;3.30;;;;;;;8.31;65.98;99936.91;5031247;28;20048;-59
2022/05/30 00:48:10;;;;;;;6.68;3.10;;;;;;;8.60;66.09;99998.13;5031781;28;20042;-57
2022/05/30 00:50:37;;;;;;;8.02;3.10;;;;;;;8.62;66.19;100000.69;5031429;28;20041;-60
2022/05/30 00:53:03;;;;;;;10.02;3.45;;;;;;;8.63;66.10;100004.22;5030972;28;20083;-58
2022/05/30 00:55:28;;;;;;;5.82;3.17;;;;;;;8.59;66.11;100004.44;5031442;28;20033;-54
2022/05/30 00:57:55;;;;;;;5.43;3.20;;;;;;;8.62;66.15;100006.03;5031160;28;20408;-57
2022/05/30 01:00:25;;;;;;;6.18;3.22;;;;;;;8.61;65.98;99997.16;5031011;28;20037;-58
2022/05/30 01:08:25;;;;;;;9.73;4.22;;;;;;;8.64;66.27;100011.25;5031135;28;20167;-59
2022/05/30 01:10:51;;;;;;;6.25;3.40;;;;;;;8.53;66.47;99998.66;5030473;28;20494;-58
2022/05/30 01:13:16;;;;;;;5.75;3.28;;;;;;;8.58;66.40;100007.19;5031401;28;20060;-58
2022/05/30 01:15:42;;;;;;;6.22;3.40;;;;;;;8.58;66.66;100009.88;5031048;28;20462;-57
2022/05/30 01:18:07;;;;;;;7.57;3.70;;;;;;;8.59;66.76;100007.09;5030379;28;20071;-58
2022/05/30 01:20:48;;;;;;;7.35;3.67;;;;;;;8.60;66.77;100005.28;5030629;28;20033;-59
2022/05/30 01:23:33;;;;;;;7.40;3.10;;;;;;;8.69;66.73;100011.78;5031061;28;20178;-59
2022/05/30 01:26:13;;;;;;;9.60;3.53;;;;;;;8.73;66.89;100011.47;5031325;28;20036;-57
2022/05/30 01:29:05;;;;;;;9.85;3.55;;;;;;;8.76;66.35;100016.59;5030656;28;20412;-58
2022/05/30 01:31:31;;;;;;;5.35;3.33;;;;;;;8.66;66.73;100012.84;5030997;28;20037;-56
2022/05/30 01:33:57;;;;;;;8.63;3.35;;;;;;;8.66;66.55;100014.69;5030370;28;20480;-56
2022/05/30 01:36:28;;;;;;;9.75;3.10;;;;;;;8.65;66.74;100002.28;5030942;28;20032;-61
2022/05/30 01:38:53;;;;;;;10.73;3.85;;;;;;;8.67;67.07;100011.88;5030571;28;20112;-60
2022/05/30 01:41:19;;;;;;;8.63;3.65;;;;;;;8.71;66.67;100024.06;5030286;28;20120;-58
2022/05/30 01:43:45;;;;;;;7.05;3.42;;;;;;;8.73;66.83;100027.50;5030410;28;20038;-56
2022/05/30 01:46:16;;;;;;;8.50;3.35;;;;;;;8.81;66.87;100031.44;5030998;28;20034;-57
2022/05/30 01:48:42;;;;;;;8.15;3.92;;;;;;;8.80;67.15;100040.41;5029732;28;20879;-57
2022/05/30 01:51:07;;;;;;;7.22;3.35;;;;;;;8.81;66.93;100029.63;5030349;28;20437;-58
2022/05/30 01:53:33;;;;;;;9.77;3.75;;;;;;;8.86;66.83;100040.84;5029312;28;20033;-62
2022/05/30 01:55:58;;;;;;;7.75;4.05;;;;;;;8.89;67.02;100039.75;5030344;28;20029;-60
2022/05/30 01:58:24;;;;;;;7.75;3.70;;;;;;;8.92;66.68;100047.53;5030116;28;20049;-56
2022/05/30 02:00:50;;;;;;;7.43;3.67;;;;;;;8.97;66.47;100045.44;5030272;28;20049;-60
2022/05/30 02:03:15;;;;;;;9.32;3.42;;;;;;;9.03;66.26;100044.97;5030433;28;20040;-58
2022/05/30 02:05:41;;;;;;;8.98;3.33;;;;;;;9.11;65.73;100048.91;5030862;28;20033;-57
2022/05/30 02:08:08;;;;;;;6.47;3.35;;;;;;;9.15;65.76;100050.41;5029880;28;20092;-55
2022/05/30 02:10:34;;;;;;;6.88;3.38;;;;;;;9.26;65.71;100055.84;5030542;28;20041;-58
2022/05/30 02:13:01;;;;;;;9.93;3.53;;;;;;;9.42;65.16;100044.06;5029602;28;20034;-58
2022/05/30 02:15:26;;;;;;;5.57;3.25;;;;;;;9.68;64.10;100043.97;5030176;28;20120;-61
2022/05/30 02:17:52;;;;;;;10.63;3.38;;;;;;;9.89;63.46;100044.22;5029851;28;20537;-58
2022/05/30 02:20:18;;;;;;;8.90;3.20;;;;;;;10.20;62.83;100056.16;5028829;28;20120;-58
2022/05/30 02:22:45;;;;;;;8.75;3.60;;;;;;;10.50;61.99;100066.47;5030297;28;20026;-57
2022/05/30 02:25:12;;;;;;;9.10;3.60;;;;;;;10.80;60.87;100068.63;5030496;28;20048;-57
2022/05/30 02:27:38;;;;;;;10.35;3.20;;;;;;;11.16;59.98;100063.16;5029830;28;20373;-58
2022/05/30 02:30:05;;;;;;;4.78;3.15;;;;;;;11.62;58.48;100064.84;5029733;28;20082;-61
2022/05/30 02:32:30;;;;;;;13.00;3.30;;;;;;;12.09;57.36;100060.22;5030139;28;20033;-58
2022/05/30 02:37:40;;;;;;;7.82;3.45;;;;;;;12.83;54.34;100063.88;5029428;28;20037;-57
2022/05/30 02:40:06;;;;;;;6.93;3.13;;;;;;;12.99;53.53;100074.97;5029916;28;20303;-60
2022/05/30 02:42:31;;;;;;;7.32;3.20;;;;;;;12.92;53.38;100058.53;5030382;28;20037;-56
2022/05/30 02:44:57;;;;;;;5.80;3.05;;;;;;;12.82;53.78;100073.75;5030055;28;20022;-57
2022/05/30 02:47:23;;;;;;;6.97;3.28;;;;;;;12.63;54.25;100074.47;5028171;28;20033;-59
2022/05/30 02:49:48;;;;;;;10.77;3.13;;;;;;;12.47;54.86;100073.09;5029828;28;20057;-58
2022/05/30 02:52:14;;;;;;;5.75;3.30;;;;;;;12.36;55.09;100075.84;5029756;28;20492;-59
2022/05/30 02:54:39;;;;;;;5.90;3.30;;;;;;;12.09;55.54;100049.47;5029599;28;20025;-59
2022/05/30 02:57:05;;;;;;;13.70;3.83;;;;;;;12.22;55.46;100077.00;5030080;28;20111;-58
2022/05/30 02:59:31;;;;;;;10.07;3.70;;;;;;;12.20;55.66;100079.81;5029366;28;20049;-56
2022/05/30 03:01:56;;;;;;;8.23;3.58;;;;;;;12.29;55.53;100083.56;5033403;28;20033;-57
2022/05/30 03:04:22;;;;;;;10.38;3.58;;;;;;;12.45;54.84;100083.13;5033621;28;20076;-57
2022/05/30 03:06:48;;;;;;;9.70;3.30;;;;;;;12.87;53.97;100098.38;5033526;28;20033;-59
2022/05/30 03:09:15;;;;;;;15.13;3.47;;;;;;;13.38;52.54;100103.03;5034021;28;20038;-59
2022/05/30 03:11:40;;;;;;;13.20;3.70;;;;;;;13.97;50.94;100111.28;5031947;28;20500;-60
2022/05/30 03:14:06;;;;;;;11.25;4.00;;;;;;;14.61;49.49;100095.59;5033532;28;20026;-60
2022/05/30 03:16:32;;;;;;;16.63;3.55;;;;;;;15.26;47.65;100104.81;5033832;28;20033;-59
2022/05/30 03:18:57;;;;;;;9.73;3.65;;;;;;;15.79;46.37;100104.16;5033057;28;20979;-59
2022/05/30 03:21:23;;;;;;;12.32;3.33;;;;;;;16.34;44.72;100104.22;5032897;28;20030;-60
2022/05/30 03:23:49;;;;;;;15.63;3.20;;;;;;;16.82;43.80;100104.81;5033424;28;20025;-60
2022/05/30 03:26:16;;;;;;;11.55;3.25;;;;;;;17.24;43.08;100111.34;5033163;28;20056;-58
2022/05/30 03:28:42;;;;;;;11.43;3.05;;;;;;;17.71;41.11;100111.91;5031715;28;20061;-59
2022/05/30 03:31:08;;;;;;;9.23;2.63;;;;;;;18.23;39.93;100105.47;5033570;28;20080;-55
2022/05/30 03:33:38;;;;;;;9.27;2.63;;;;;;;18.79;38.41;100102.94;5033565;28;20037;-56
2022/05/30 03:36:12;;;;;;;8.77;2.17;;;;;;;19.36;36.84;100109.31;5032432;28;20029;-59
2022/05/30 03:38:37;;;;;;;3.17;1.58;;;;;;;19.70;35.16;100115.47;5033045;28;20037;-57
2022/05/30 03:41:03;;;;;;;7.05;2.22;;;;;;;20.13;33.98;100112.38;5033412;28;20033;-60
2022/05/30 03:43:28;;;;;;;5.00;1.85;;;;;;;20.63;33.18;100109.28;5032601;28;20057;-58
2022/05/30 03:45:54;;;;;;;8.75;1.52;;;;;;;21.35;31.69;100124.25;5032569;28;20044;-59
2022/05/30 03:48:21;;;;;;;5.38;1.70;;;;;;;21.89;30.57;100115.97;5032856;28;20036;-59
2022/05/30 03:50:48;;;;;;;4.25;1.40;;;;;;;22.67;29.28;100125.41;5032735;28;20044;-60
2022/05/30 03:53:14;;;;;;;4.32;1.80;;;;;;;23.41;28.24;100121.34;5031589;28;20036;-59
2022/05/30 03:55:42;;;;;;;5.50;1.50;;;;;;;24.37;27.23;100129.75;5032875;28;20026;-64
2022/05/30 03:58:09;;;;;;;6.40;1.95;;;;;;;25.28;25.80;100126.63;5032674;28;20501;-60
2022/05/30 04:00:36;;;;;;;4.15;1.80;;;;;;;25.96;24.26;100130.00;5032856;28;20041;-60
2022/05/30 04:03:02;;;;;;;3.03;1.70;;;;;;;26.31;24.24;100144.19;5032558;28;20116;-60
2022/05/30 04:05:29;;;;;;;3.75;1.77;;;;;;;26.91;23.10;100140.19;5032427;28;20037;-60
2022/05/30 04:07:55;;;;;;;5.30;1.98;;;;;;;27.68;22.40;100140.06;5032616;28;20029;-60
2022/05/30 04:10:21;;;;;;;8.23;1.70;;;;;;;28.43;21.02;100140.81;5032917;28;20040;-60
2022/05/30 04:12:47;;;;;;;3.38;1.70;;;;;;;29.09;20.06;100138.06;5031824;28;20033;-60
2022/05/30 04:15:19;;;;;;;5.03;1.48;;;;;;;29.74;19.67;100127.09;5031838;28;20036;-60
2022/05/30 04:17:45;;;;;;;2.08;1.45;;;;;;;30.46;18.47;100147.84;5031877;28;20033;-60
2022/05/30 04:20:11;;;;;;;4.47;1.80;;;;;;;30.98;18.02;100148.72;5032758;28;20075;-59
2022/05/30 04:22:36;;;;;;;3.92;1.60;;;;;;;31.47;17.68;100163.84;5032317;28;20025;-59
2022/05/30 04:25:02;;;;;;;4.40;1.50;;;;;;;32.07;16.72;100159.38;5032018;28;20444;-60
2022/05/30 04:27:28;;;;;;;3.85;1.63;;;;;;;32.72;16.05;100161.44;5031719;28;20038;-60
2022/05/30 04:29:53;;;;;;;3.05;1.40;;;;;;;33.16;15.64;100162.34;5032251;28;20029;-62
2022/05/30 04:32:19;;;;;;;4.32;1.60;;;;;;;33.62;15.26;100168.22;5031945;28;20370;-59
2022/05/30 04:34:45;;;;;;;2.83;1.20;;;;;;;34.01;14.87;100168.97;5031878;28;20053;-60
2022/05/30 04:37:11;;;;;;;6.38;1.73;;;;;;;34.57;14.24;100170.22;5031802;28;20345;-60
2022/05/30 04:39:36;;;;;;;7.63;1.40;;;;;;;34.99;14.02;100168.25;5032340;28;20108;-60
2022/05/30 04:42:03;;;;;;;2.97;1.38;;;;;;;35.48;13.20;100189.91;5031603;28;20144;-60
2022/05/30 04:44:29;;;;;;;3.47;1.20;;;;;;;35.88;13.04;100173.34;5014156;28;20091;-60
2022/05/30 04:46:55;;;;;;;3.47;1.30;;;;;;;36.34;12.71;100179.81;5030447;28;20034;-60
2022/05/30 04:49:21;;;;;;;3.53;1.30;;;;;;;36.64;11.81;100175.19;5031564;28;20033;-59
2022/05/30 04:51:48;;;;;;;1.50;1.20;;;;;;;36.94;11.74;100167.69;5031499;28;20059;-60
2022/05/30 04:54:14;;;;;;;1.63;1.17;;;;;;;37.49;11.15;100144.28;5030155;28;20176;-63
2022/05/30 04:56:40;;;;;;;4.10;1.60;;;;;;;38.03;11.34;100153.41;5031657;28;20149;-60
2022/05/30 04:59:06;;;;;;;5.03;1.42;;;;;;;38.30;10.71;100159.41;5031307;28;20485;-60
2022/05/30 05:01:32;;;;;;;1.60;1.50;;;;;;;38.50;10.46;100161.13;5031145;28;20431;-61
2022/05/30 05:03:58;;;;;;;1.65;1.40;;;;;;;38.59;10.76;100164.06;5028475;28;20026;-60
2022/05/30 05:06:23;;;;;;;2.40;1.05;;;;;;;38.66;10.90;100158.03;5020647;28;20080;-59
2022/05/30 05:08:55;;;;;;;3.20;1.27;;;;;;;39.49;10.54;100163.03;5030954;28;20033;-60
2022/05/30 05:11:22;;;;;;;2.45;1.25;;;;;;;40.11;9.77;100161.75;5013448;28;20039;-60
2022/05/30 05:13:48;;;;;;;1.77;1.10;;;;;;;40.35;9.49;100152.25;5031133;28;20158;-60
2022/05/30 05:16:15;;;;;;;1.42;1.30;;;;;;;40.81;9.20;100167.09;5029124;28;20133;-55
2022/05/30 05:18:41;;;;;;;2.70;1.10;;;;;;;41.03;9.02;100155.03;5031340;28;20048;-59
2022/05/30 05:21:06;;;;;;;1.15;1.10;;;;;;;40.87;8.76;100132.13;5031232;28;20033;-60
2022/05/30 05:23:33;;;;;;;1.20;1.13;;;;;;;41.10;8.54;100150.94;5030468;28;20112;-60
2022/05/30 05:26:01;;;;;;;3.75;1.33;;;;;;;41.16;8.73;100138.41;5030584;28;20037;-58
2022/05/30 05:28:27;;;;;;;4.22;1.60;;;;;;;41.48;8.63;100139.22;5030809;28;20037;-62
2022/05/30 05:30:52;;;;;;;1.27;1.17;;;;;;;41.69;7.97;100149.84;5019912;28;20421;-60
2022/05/30 05:33:18;;;;;;;1.30;1.20;;;;;;;42.03;7.93;100153.94;5030110;28;20108;-60
2022/05/30 05:35:45;;;;;;;3.35;1.50;;;;;;;42.44;7.56;100175.16;5030868;28;20116;-60
2022/05/30 05:38:11;;;;;;;4.20;1.25;;;;;;;42.41;7.75;100163.69;5030920;28;20108;-61
2022/05/30 05:40:41;;;;;;;4.50;1.25;;;;;;;42.98;7.80;100147.75;5030562;28;20120;-61
2022/05/30 05:43:07;;;;;;;4.30;1.20;;;;;;;43.12;7.52;100156.81;5030166;28;20887;-60
2022/05/30 05:45:37;;;;;;;2.40;1.30;;;;;;;43.39;7.11;100165.16;5030894;28;20029;-61
2022/05/30 05:48:03;;;;;;;3.55;1.30;;;;;;;43.57;6.98;100152.63;5030320;28;20063;-60
2022/05/30 05:50:28;;;;;;;2.10;1.15;;;;;;;43.99;6.69;100156.72;5030193;28;20029;-60
2022/05/30 05:52:54;;;;;;;4.35;1.40;;;;;;;44.44;6.15;100161.69;5027015;28;20115;-60
2022/05/30 05:55:21;;;;;;;2.42;1.10;;;;;;;44.95;5.70;100140.94;5030348;28;20535;-60
2022/05/30 05:57:46;;;;;;;3.65;1.25;;;;;;;45.40;5.62;100147.69;5030363;28;20103;-60
2022/05/30 06:00:13;;;;;;;1.17;1.08;;;;;;;45.80;5.39;100151.81;5030535;28;20046;-60
2022/05/30 06:02:39;;;;;;;3.22;1.13;;;;;;;46.60;4.73;100154.19;5030307;28;20037;-60
2022/05/30 06:05:05;;;;;;;1.80;1.10;;;;;;;47.03;4.15;100151.69;5030620;28;20145;-61
2022/05/30 06:07:32;;;;;;;2.53;1.27;;;;;;;47.64;4.72;100155.25;5029943;28;20038;-59
2022/05/30 06:09:58;;;;;;;4.20;1.17;;;;;;;47.84;4.35;100144.78;5029407;28;20037;-60
2022/05/30 06:12:23;;;;;;;2.92;1.20;;;;;;;47.77;3.94;100141.78;5029985;28;20524;-60
2022/05/30 06:14:49;;;;;;;3.22;1.17;;;;;;;47.92;4.04;100148.59;5030795;28;20604;-61
2022/05/30 06:17:14;;;;;;;1.23;1.10;;;;;;;48.35;3.64;100148.69;5030161;28;20467;-59
2022/05/30 06:19:40;;;;;;;1.42;1.10;;;;;;;48.67;3.75;100154.19;5029959;28;20367;-60
2022/05/30 06:22:06;;;;;;;4.28;1.33;;;;;;;48.82;3.51;100151.66;5030164;28;20037;-61
2022/05/30 06:24:31;;;;;;;1.67;1.30;;;;;;;49.12;3.21;100150.94;5030672;28;20029;-60
2022/05/30 06:26:57;;;;;;;1.13;1.02;;;;;;;49.29;3.13;100155.31;5029838;28;20496;-63
2022/05/30 06:29:22;;;;;;;1.45;0.95;;;;;;;49.35;2.59;100152.97;5030049;28;20044;-60
2022/05/30 06:31:48;;;;;;;0.77;0.73;;;;;;;49.35;2.54;100148.13;5030119;28;20033;-62
2022/05/30 06:34:13;;;;;;;0.90;0.90;;;;;;;49.63;2.62;100157.47;5029348;28;20037;-61
2022/05/30 06:36:42;;;;;;;3.03;1.20;;;;;;;50.02;2.36;100154.38;5033527;28;20025;-60
2022/05/30 06:39:10;;;;;;;3.90;1.13;;;;;;;50.34;2.14;100159.69;5034089;28;20083;-62
2022/05/30 06:41:36;;;;;;;1.00;1.00;;;;;;;50.97;2.04;100147.75;5033872;28;20037;-61
2022/05/30 06:44:04;;;;;;;1.27;1.17;;;;;;;51.39;1.92;100162.78;5033182;28;20493;-59
2022/05/30 06:46:33;;;;;;;1.75;1.27;;;;;;;51.49;1.63;100155.47;5034159;28;20035;-60
2022/05/30 06:48:59;;;;;;;3.85;1.17;;;;;;;51.49;1.71;100149.78;5033571;28;20112;-61
2022/05/30 06:51:27;;;;;;;3.40;1.30;;;;;;;51.62;1.96;100153.16;5033730;28;20109;-60
2022/05/30 06:53:53;;;;;;;4.68;1.65;;;;;;;51.63;1.73;100164.16;5033687;28;20036;-61
2022/05/30 06:56:27;;;;;;;1.83;1.50;;;;;;;51.76;2.00;100158.94;5033787;28;20041;-59
2022/05/30 06:58:53;;;;;;;8.90;5.60;;;;;;;51.76;1.43;100156.09;5033572;28;20033;-61
2022/05/30 07:01:31;;;;;;;5.63;2.83;;;;;;;51.31;1.99;100164.75;5033816;28;20116;-61
2022/05/30 07:03:57;;;;;;;2.70;2.00;;;;;;;51.12;2.20;100165.78;5032894;28;20037;-61
2022/05/30 07:06:26;;;;;;;3.85;2.30;;;;;;;51.60;2.26;100164.13;5033819;28;20091;-61
2022/05/30 07:08:51;;;;;;;4.22;2.10;;;;;;;51.83;1.78;100164.69;5033620;28;20022;-62
2022/05/30 07:11:20;;;;;;;2.33;1.73;;;;;;;51.74;1.81;100166.28;5033208;28;20469;-61
2022/05/30 07:13:46;;;;;;;2.85;1.90;;;;;;;51.72;1.87;100165.84;5032698;28;20030;-60
2022/05/30 07:16:13;;;;;;;3.10;1.90;;;;;;;52.17;1.48;100180.78;5033246;28;20497;-62
2022/05/30 07:18:46;;;;;;;3.03;2.15;;;;;;;52.25;1.68;100173.06;5023008;28;20026;-59
2022/05/30 07:21:14;;;;;;;2.70;1.95;;;;;;;52.75;1.57;100172.41;5028089;28;20041;-61
2022/05/30 07:23:40;;;;;;;4.65;2.47;;;;;;;52.43;1.31;100163.75;5032141;28;20029;-61
2022/05/30 07:26:13;;;;;;;5.03;2.25;;;;;;;53.10;1.42;100170.03;5032713;28;20037;-60
2022/05/30 07:28:39;;;;;;;3.35;2.80;;;;;;;53.53;1.45;100164.25;5033252;28;20045;-60
2022/05/30 07:31:07;;;;;;;2.83;2.58;;;;;;;53.62;1.11;100165.88;5028478;28;20109;-61
2022/05/30 07:33:34;;;;;;;2.38;2.17;;;;;;;53.24;1.53;100172.84;5032339;28;20048;-60
2022/05/30 07:36:02;;;;;;;2.53;2.33;;;;;;;52.27;1.19;100159.19;5030416;28;20026;-60
2022/05/30 07:38:27;;;;;;;2.40;2.30;;;;;;;51.44;1.63;100162.41;5030785;28;20041;-59
2022/05/30 07:40:53;;;;;;;3.67;2.08;;;;;;;51.72;1.57;100163.81;5032804;28;20030;-63
2022/05/30 07:43:19;;;;;;;1.90;1.80;;;;;;;51.38;1.81;100169.69;5032491;28;20123;-64
2022/05/30 07:45:45;;;;;;;2.63;1.95;;;;;;;51.41;1.59;100160.34;5032393;28;20119;-62
2022/05/30 07:48:10;;;;;;;3.30;2.40;;;;;;;51.82;1.75;100156.53;5030643;28;20473;-62
2022/05/30 07:50:36;;;;;;;4.22;2.45;;;;;;;51.67;1.47;100161.34;5031641;28;20378;-62
2022/05/30 07:53:04;;;;;;;2.75;2.15;;;;;;;51.12;1.98;100154.38;5023691;28;20397;-62
2022/05/30 07:55:29;;;;;;;3.08;2.35;;;;;;;50.69;1.89;100171.88;5028819;28;20445;-61
2022/05/30 07:58:04;;;;;;;2.75;2.05;;;;;;;49.80;2.69;100162.59;5030961;28;20504;-61
2022/05/30 08:00:32;;;;;;;2.10;2.00;;;;;;;48.09;3.07;100153.03;5032261;28;20041;-62
2022/05/30 08:02:57;;;;;;;2.63;1.83;;;;;;;45.50;4.27;100166.19;5030189;28;20033;-64
2022/05/30 08:05:23;;;;;;;3.28;1.60;;;;;;;44.67;4.83;100147.22;5031497;28;20087;-63
2022/05/30 08:07:49;;;;;;;2.13;1.45;;;;;;;45.34;4.62;100163.25;5031690;28;20055;-62
2022/05/30 08:10:16;;;;;;;5.00;1.65;;;;;;;46.12;4.26;100168.97;5031892;28;20033;-65
2022/05/30 08:12:42;;;;;;;4.35;1.90;;;;;;;45.41;4.68;100163.47;5031030;28;20530;-63
2022/05/30 08:15:09;;;;;;;3.60;1.40;;;;;;;43.76;5.56;100173.97;5031927;28;20029;-65
2022/05/30 08:17:35;;;;;;;1.50;1.10;;;;;;;42.60;5.73;100180.25;5031262;28;20152;-65
2022/05/30 08:20:01;;;;;;;1.40;0.88;;;;;;;40.20;7.03;100187.06;5031586;28;20141;-63
2022/05/30 08:22:32;;;;;;;1.27;1.05;;;;;;;37.83;8.23;100198.34;5028367;28;20080;-63
2022/05/30 08:24:58;;;;;;;8.75;1.83;;;;;;;34.93;10.38;100195.22;5046647;28;20076;-65
2022/05/30 08:27:23;;;;;;;2.10;1.20;;;;;;;32.78;12.08;100182.53;5031550;28;20112;-63
2022/05/30 08:29:49;;;;;;;4.85;1.35;;;;;;;31.09;13.70;100202.25;5032537;28;20026;-62
2022/05/30 08:32:15;;;;;;;2.00;1.20;;;;;;;29.94;14.09;100204.81;5031264;28;20052;-62
2022/05/30 08:34:41;;;;;;;1.17;1.08;;;;;;;28.96;15.00;100216.31;5031587;28;20155;-61
2022/05/30 08:37:08;;;;;;;3.72;1.17;;;;;;;27.93;15.41;100192.28;5032112;28;20083;-61
2022/05/30 08:42:23;;;;;;;3.85;1.55;;;;;;;26.59;17.20;100216.25;5031107;28;20064;-60
2022/05/30 08:44:49;;;;;;;3.55;1.17;;;;;;;25.88;18.52;100208.72;5032357;28;20125;-61
2022/05/30 08:47:57;;;;;;;2.47;1.35;;;;;;;25.67;17.62;100225.44;5029893;28;20032;-60
2022/05/30 08:50:30;;;;;;;3.95;1.50;;;;;;;24.88;19.45;100217.88;5030793;28;20037;-60
2022/05/30 08:53:14;;;;;;;3.35;1.55;;;;;;;24.25;20.29;100166.97;5031393;28;20433;-60
2022/05/30 08:56:10;;;;;;;4.70;1.50;;;;;;;24.62;19.30;100227.69;5031133;28;20088;-61
2022/05/30 08:58:35;;;;;;;;;;;;;;;24.84;17.68;100216.59;5030924;28;20056;-61
2022/05/30 09:01:04;;;;;;;;;;;;;;;24.87;17.65;100217.03;5063307;28;20388;-58
2022/05/30 09:03:36;;;;;;;3.88;1.30;;;;;;;23.93;20.08;100212.06;5030757;28;19928;-59
2022/05/30 09:06:11;;;;;;;4.60;1.20;;;;;;;23.76;20.30;100217.03;5030556;28;20050;-59
2022/05/30 09:08:45;;;;;;;3.40;1.10;;;;;;;23.64;20.90;100233.13;5031537;28;20037;-61
2022/05/30 09:11:43;;;;;;;2.15;1.00;;;;;;;23.60;20.04;100223.63;5031248;28;20061;-60
2022/05/30 09:14:27;;;;;;;2.60;1.10;;;;;;;23.45;20.85;100222.91;5030714;28;20037;-62
2022/05/30 09:16:58;;;;;;;2.00;1.20;;;;;;;23.45;21.21;100217.44;5031388;28;20160;-61
2022/05/30 09:19:24;;;;;;;1.95;1.00;;;;;;;23.40;21.98;100217.19;5031029;28;20060;-61
2022/05/30 09:21:53;;;;;;;3.92;1.20;;;;;;;23.40;21.45;100218.03;5031001;28;20065;-61
2022/05/30 09:24:19;;;;;;;4.68;1.33;;;;;;;23.47;21.62;100221.66;5030432;28;20034;-61
2022/05/30 09:26:45;;;;;;;1.92;1.30;;;;;;;23.47;21.31;100223.56;5011507;28;20088;-60
2022/05/30 09:29:17;;;;;;;3.10;1.13;;;;;;;23.57;20.74;100221.28;5030871;28;20037;-62
2022/05/30 09:31:53;;;;;;;5.18;1.35;;;;;;;23.59;20.75;100221.94;5030789;28;20033;-62
2022/05/30 09:34:34;;;;;;;2.92;1.13;;;;;;;23.60;20.32;100212.69;5030391;28;20485;-61
2022/05/30 09:37:00;;;;;;;2.92;1.10;;;;;;;23.35;21.13;100224.09;5030604;28;20029;-62
2022/05/30 09:39:27;;;;;;;2.25;1.15;;;;;;;23.22;21.07;100221.22;5030719;28;20038;-63
2022/05/30 09:41:57;;;;;;;1.10;1.00;;;;;;;23.05;20.65;100216.03;5029915;28;20076;-61
2022/05/30 09:44:29;;;;;;;4.03;1.55;;;;;;;22.80;21.53;100221.06;5028391;28;20072;-61
2022/05/30 09:47:02;;;;;;;2.38;1.00;;;;;;;22.74;22.35;100219.09;5030628;28;20109;-62
2022/05/30 09:49:40;;;;;;;2.88;1.17;;;;;;;22.92;21.35;100224.97;5028693;28;20489;-60
2022/05/30 09:52:26;;;;;;;2.75;1.00;;;;;;;23.11;20.80;100219.00;5029338;28;20097;-61
2022/05/30 09:54:53;;;;;;;;;;;;;;;23.48;19.90;100215.13;5018756;28;20037;-61
2022/05/30 09:57:30;;;;;;;1.80;0.85;;;;;;;23.27;20.61;100216.03;5030620;28;19935;-62
2022/05/30 10:00:06;;;;;;;5.47;1.27;;;;;;;23.17;21.23;100226.44;5030786;28;20588;-62
2022/05/30 10:02:37;;;;;;;2.00;0.90;;;;;;;23.09;20.89;100221.97;5029632;28;20040;-60
2022/05/30 10:05:07;;;;;;;2.47;0.85;;;;;;;23.05;21.29;100223.41;5029763;28;20025;-61
2022/05/30 10:07:34;;;;;;;1.55;0.82;;;;;;;22.98;21.72;100219.75;5030225;28;20037;-61
2022/05/30 10:10:21;;;;;;;4.00;1.23;;;;;;;22.94;21.35;100222.03;5017835;28;20129;-62
2022/05/30 10:13:12;;;;;;;2.08;1.02;;;;;;;22.97;21.20;100220.78;5025131;28;20120;-61
2022/05/30 10:15:43;;;;;;;1.88;1.05;;;;;;;22.63;21.60;100217.72;5020141;28;20219;-56
2022/05/30 10:18:12;;;;;;;1.08;1.02;;;;;;;22.34;22.07;100203.97;5029296;28;20034;-57
2022/05/30 10:21:01;;;;;;;1.38;1.20;;;;;;;22.14;22.19;100203.72;5028696;28;20049;-61
2022/05/30 10:29:20;;;;;;;2.60;1.25;;;;;;;22.29;22.61;100202.84;5028681;28;20029;-61
2022/05/30 10:32:01;;;;;;;4.88;1.20;;;;;;;22.52;22.49;100175.44;5029167;28;20057;-61
2022/05/30 10:34:49;;;;;;;2.25;1.23;;;;;;;22.80;22.09;100183.69;5026881;28;20065;-62
2022/05/30 10:37:44;;;;;;;3.20;1.15;;;;;;;23.11;21.59;100181.66;5028835;28;20040;-62
2022/05/30 10:40:28;;;;;;;3.63;1.50;;;;;;;23.31;21.45;100181.00;5028866;28;20116;-61
2022/05/30 10:42:59;;;;;;;1.77;1.23;;;;;;;23.25;21.42;100198.13;5030173;28;20040;-62
2022/05/30 10:45:40;;;;;;;1.83;1.15;;;;;;;23.28;21.25;100179.50;5030364;28;20040;-62
2022/05/30 10:48:10;;;;;;;1.77;1.10;;;;;;;23.32;21.80;100194.44;5029332;28;20040;-61
2022/05/30 10:50:49;;;;;;;2.13;1.17;;;;;;;23.15;21.38;100165.69;5028668;28;20092;-63
2022/05/30 10:53:40;;;;;;;1.65;0.90;;;;;;;23.16;21.13;100172.88;5029796;28;20036;-64
2022/05/30 10:56:17;;;;;;;1.58;1.02;;;;;;;23.15;21.19;100179.34;5030185;28;20105;-62
2022/05/30 10:58:55;;;;;;;1.42;1.17;;;;;;;22.98;21.43;100185.13;5029490;28;20408;-61
2022/05/30 11:01:38;;;;;;;1.30;1.00;;;;;;;22.75;21.62;100183.44;5029535;28;20037;-63
2022/05/30 11:04:21;;;;;;;1.92;0.98;;;;;;;22.63;21.82;100179.53;5029726;28;20025;-60
2022/05/30 11:06:49;;;;;;;1.92;1.17;;;;;;;22.48;22.99;100160.50;5029385;28;20398;-61
2022/05/30 11:09:37;;;;;;;2.33;1.50;;;;;;;22.76;22.22;100165.16;5029337;28;20045;-62
2022/05/30 11:12:06;;;;;;;2.15;1.33;;;;;;;22.71;21.84;100170.38;5030059;28;20037;-61
2022/05/30 11:14:43;;;;;;;2.75;1.10;;;;;;;22.66;21.80;100173.69;5030183;28;20029;-63
2022/05/30 11:17:28;;;;;;;1.75;0.90;;;;;;;22.51;22.30;100163.69;5028140;28;20029;-59
2022/05/30 11:20:22;;;;;;;2.13;1.20;;;;;;;22.53;21.67;100151.72;5029045;28;20034;-63
2022/05/30 11:22:54;;;;;;;1.38;1.20;;;;;;;22.41;21.72;100152.19;5031258;28;20041;-61
2022/05/30 11:25:37;;;;;;;2.10;1.17;;;;;;;22.46;21.62;100152.50;5029733;28;20064;-59
2022/05/30 11:28:14;;;;;;;1.27;1.05;;;;;;;22.28;21.44;100152.06;5032744;28;20037;-60
2022/05/30 11:31:08;;;;;;;1.27;1.05;;;;;;;22.18;22.14;100145.03;5022956;28;20115;-59
2022/05/30 11:33:59;;;;;;;5.20;1.40;;;;;;;22.30;22.08;100148.09;5032991;28;20029;-61
2022/05/30 11:37:06;;;;;;;1.05;0.95;;;;;;;22.26;22.15;100140.50;5032530;28;20041;-60
2022/05/30 11:39:50;;;;;;;0.95;0.85;;;;;;;22.17;22.08;100132.44;5024626;28;20497;-62
2022/05/30 11:42:21;;;;;;;1.40;1.17;;;;;;;22.04;23.00;100143.22;5012878;28;20045;-56
2022/05/30 11:44:55;;;;;;;2.88;0.90;;;;;;;22.05;23.19;100137.53;5013126;28;20044;-60
2022/05/30 11:47:26;;;;;;;1.83;1.10;;;;;;;21.98;23.08;100133.06;5013372;28;20053;-59
2022/05/30 11:50:43;;;;;;;3.40;0.90;;;;;;;22.03;22.79;100130.63;5018064;28;20104;-58
2022/05/30 11:53:40;;;;;;;2.00;1.10;;;;;;;22.07;22.70;100130.03;5020252;28;20038;-58
2022/05/30 11:56:40;;;;;;;2.90;1.08;;;;;;;22.18;22.74;100128.66;5029365;28;20036;-61
2022/05/30 11:59:47;;;;;;;1.60;1.35;;;;;;;22.22;22.71;100119.09;5032797;28;20041;-60